createdAt,value
2023-03-19T00:02:49.921Z,30.00
2023-03-19T00:07:57.445Z,31.70
2023-03-19T00:13:06.086Z,29.10
2023-03-19T00:18:15.025Z,28.20
2023-03-19T00:23:23.236Z,30.30
2023-03-19T00:28:31.351Z,37.90
2023-03-19T00:33:40.518Z,25.60
2023-03-19T00:38:48.629Z,36.70
2023-03-19T00:44:00.614Z,43.50
2023-03-19T00:49:08.126Z,39.30
2023-03-19T00:54:16.179Z,41.60
2023-03-19T00:59:25.938Z,32.20
2023-03-19T01:04:33.833Z,42.50
2023-03-19T01:09:41.591Z,43.20
2023-03-19T01:14:49.027Z,39.70
2023-03-19T01:19:57.542Z,40.80
2023-03-19T01:25:06.153Z,32.70
2023-03-19T01:30:15.508Z,39.20
2023-03-19T01:35:23.077Z,38.10
2023-03-19T01:40:32.677Z,29.00
2023-03-19T01:45:42.695Z,22.50
2023-03-19T01:50:54.359Z,38.60
2023-03-19T01:56:08.757Z,42.40
2023-03-19T02:01:17.327Z,37.10
2023-03-19T02:06:25.842Z,38.90
2023-03-19T02:11:34.806Z,24.00
2023-03-19T02:16:42.733Z,38.50
2023-03-19T02:21:51.426Z,34.40
2023-03-19T02:27:00.269Z,29.10
2023-03-19T02:32:09.709Z,33.50
2023-03-19T02:37:21.725Z,34.20
2023-03-19T02:42:31.541Z,27.80
2023-03-19T02:47:39.415Z,29.40
2023-03-19T02:52:47.314Z,25.00
2023-03-19T02:57:55.233Z,27.70
2023-03-19T03:03:03.556Z,24.60
2023-03-19T03:08:11.011Z,19.40
2023-03-19T03:13:19.129Z,34.80
2023-03-19T03:18:27.327Z,26.80
2023-03-19T03:23:34.967Z,27.90
2023-03-19T03:28:43.611Z,29.60
2023-03-19T03:33:50.863Z,27.30
2023-03-19T03:44:17.840Z,29.40
2023-03-19T03:49:26.354Z,29.80
2023-03-19T03:54:34.888Z,24.60
2023-03-19T03:59:43.455Z,20.50
2023-03-19T04:04:51.670Z,21.50
2023-03-19T04:10:00.300Z,21.80
2023-03-19T04:15:11.183Z,21.40
2023-03-19T04:20:18.907Z,18.00
2023-03-19T04:25:26.414Z,25.10
2023-03-19T04:30:35.393Z,27.90
2023-03-19T04:35:45.538Z,25.60
2023-03-19T04:44:16.098Z,26.30
2023-03-19T04:49:24.546Z,25.80
2023-03-19T04:54:32.267Z,26.30
2023-03-19T04:59:39.944Z,23.80
2023-03-19T05:04:47.542Z,22.00
2023-03-19T05:09:55.776Z,20.30
2023-03-19T05:15:03.263Z,22.70
2023-03-19T05:20:13.221Z,23.20
2023-03-19T05:25:20.977Z,23.70
2023-03-19T05:30:28.602Z,29.80
2023-03-19T05:35:36.946Z,29.00
2023-03-19T05:40:44.665Z,25.00
2023-03-19T05:45:54.977Z,28.60
2023-03-19T05:51:02.605Z,25.60
2023-03-19T05:56:11.466Z,27.80
2023-03-19T06:01:19.089Z,28.00
2023-03-19T06:06:27.682Z,30.50
2023-03-19T06:11:36.453Z,31.50
2023-03-19T06:17:11.876Z,21.90
2023-03-19T06:22:19.820Z,27.60
2023-03-19T06:27:27.821Z,31.70
2023-03-19T06:32:35.569Z,29.70
2023-03-19T06:37:43.748Z,31.10
2023-03-19T06:42:52.776Z,32.50
2023-03-19T06:48:00.238Z,34.10
2023-03-19T06:53:08.128Z,34.90
2023-03-19T06:58:16.023Z,32.40
2023-03-19T07:03:23.770Z,35.50
2023-03-19T07:08:31.540Z,30.00
2023-03-19T07:13:39.370Z,31.90
2023-03-19T07:18:46.878Z,29.50
2023-03-19T07:23:54.353Z,26.90
2023-03-19T07:34:08.152Z,22.10
2023-03-19T07:39:16.305Z,24.30
2023-03-19T07:44:23.989Z,24.10
2023-03-19T07:49:33.758Z,25.00
2023-03-19T07:54:41.246Z,22.70
2023-03-19T07:59:48.793Z,23.20
2023-03-19T08:04:57.601Z,21.80
2023-03-19T08:10:05.358Z,22.80
2023-03-19T08:15:14.682Z,16.40
2023-03-19T08:20:22.619Z,21.20
2023-03-19T08:25:32.964Z,19.80
2023-03-19T08:30:41.221Z,18.40
2023-03-19T08:35:49.455Z,14.00
2023-03-19T08:41:02.556Z,11.00
2023-03-19T08:46:11.408Z,13.00
2023-03-19T08:51:19.131Z,11.50
2023-03-19T08:56:26.913Z,10.80
2023-03-19T09:01:35.054Z,10.20
2023-03-19T09:06:42.544Z,10.30
2023-03-19T09:11:51.211Z,10.70
2023-03-19T09:16:59.427Z,8.20
2023-03-19T09:22:07.321Z,10.60
2023-03-19T09:27:14.963Z,11.70
2023-03-19T09:32:22.527Z,8.50
2023-03-19T09:37:30.351Z,10.80
2023-03-19T09:42:54.588Z,10.90
2023-03-19T09:48:14.324Z,11.10
2023-03-19T09:53:33.535Z,10.80
2023-03-19T09:58:41.033Z,8.90
2023-03-19T10:04:01.801Z,9.00
2023-03-19T10:09:34.027Z,10.00
2023-03-19T10:14:57.822Z,9.30
2023-03-19T10:20:11.133Z,9.10
2023-03-19T10:25:24.286Z,9.80
2023-03-19T10:30:35.326Z,9.90
2023-03-19T10:35:47.209Z,8.90
2023-03-19T10:41:07.030Z,8.50
2023-03-19T10:46:17.641Z,9.30
2023-03-19T10:51:27.847Z,9.10
2023-03-19T10:56:37.622Z,8.70
2023-03-19T11:01:47.037Z,7.80
2023-03-19T11:06:56.711Z,8.60
2023-03-19T11:12:17.648Z,8.50
2023-03-19T11:17:27.522Z,7.70
2023-03-19T11:22:38.423Z,6.30
2023-03-19T11:27:46.862Z,6.90
2023-03-19T11:33:37.335Z,8.00
2023-03-19T11:39:01.141Z,7.90
2023-03-19T11:44:17.134Z,7.30
2023-03-19T11:49:41.643Z,5.80
2023-03-19T11:55:05.949Z,5.60
2023-03-19T12:00:26.040Z,5.30
2023-03-19T12:05:40.341Z,5.80
2023-03-19T12:11:00.710Z,6.00
2023-03-19T12:16:17.396Z,5.10
2023-03-19T12:21:32.245Z,5.40
2023-03-19T12:26:54.810Z,5.50
2023-03-19T12:32:13.440Z,5.20
2023-03-19T12:37:29.610Z,6.20
2023-03-19T12:42:42.580Z,6.00
2023-03-19T12:47:52.240Z,6.20
2023-03-19T12:53:03.615Z,6.00
2023-03-19T12:58:20.678Z,5.50
2023-03-19T13:03:36.054Z,5.20
2023-03-19T13:08:49.505Z,6.40
2023-03-19T13:14:03.455Z,6.20
2023-03-19T13:19:23.330Z,6.40
2023-03-19T13:24:33.993Z,6.30
2023-03-19T13:29:58.307Z,7.00
2023-03-19T13:35:29.269Z,6.90
2023-03-19T13:40:46.784Z,6.30
2023-03-19T13:46:05.184Z,5.80
2023-03-19T13:51:29.926Z,5.20
2023-03-19T13:57:08.101Z,5.50
2023-03-19T14:02:50.569Z,6.20
2023-03-19T14:07:58.913Z,6.00
2023-03-19T14:13:10.107Z,5.20
2023-03-19T14:18:22.741Z,5.50
2023-03-19T14:23:41.126Z,6.20
2023-03-19T14:29:07.601Z,6.00
2023-03-19T14:34:26.309Z,5.60
2023-03-19T14:39:40.826Z,5.80
2023-03-19T14:45:21.597Z,5.40
2023-03-19T14:50:56.430Z,5.20
2023-03-19T14:56:12.567Z,6.10
2023-03-19T15:01:20.794Z,5.20
2023-03-19T15:06:32.967Z,5.40
2023-03-19T15:12:07.967Z,6.00
2023-03-19T15:17:24.864Z,5.60
2023-03-19T15:22:36.298Z,5.10
2023-03-19T15:27:44.552Z,5.00
2023-03-19T15:33:07.782Z,4.60
2023-03-19T15:38:19.651Z,5.40
2023-03-19T15:43:29.310Z,5.60
2023-03-19T15:48:44.295Z,5.50
2023-03-19T15:53:52.402Z,4.80
2023-03-19T15:59:01.446Z,4.80
2023-03-19T16:04:14.821Z,5.20
2023-03-19T16:09:28.070Z,5.50
2023-03-19T16:14:42.102Z,5.20
2023-03-19T16:19:56.597Z,5.60
2023-03-19T16:25:08.183Z,5.70
2023-03-19T16:30:23.418Z,5.40
2023-03-19T16:35:34.157Z,6.20
2023-03-19T16:40:49.959Z,5.90
2023-03-19T16:46:11.051Z,6.10
2023-03-19T16:51:21.242Z,5.60
2023-03-19T16:56:29.510Z,5.80
2023-03-19T17:01:37.616Z,6.70
2023-03-19T17:06:45.717Z,6.80
2023-03-19T17:11:54.157Z,7.10
2023-03-19T17:17:03.080Z,7.10
2023-03-19T17:22:13.714Z,6.30
2023-03-19T17:27:21.480Z,7.00
2023-03-19T17:32:30.045Z,6.50
2023-03-19T17:37:38.439Z,6.80
2023-03-19T17:42:46.852Z,6.00
2023-03-19T17:47:56.921Z,7.20
2023-03-19T17:53:04.444Z,6.70
2023-03-19T17:58:18.659Z,7.30
2023-03-19T18:03:29.017Z,6.50
2023-03-19T18:08:36.672Z,7.20
2023-03-19T18:13:44.906Z,6.80
2023-03-19T18:28:40.939Z,7.20
2023-03-19T18:33:52.691Z,6.40
2023-03-19T18:39:01.069Z,6.20
2023-03-19T18:44:09.079Z,7.50
2023-03-19T18:49:24.099Z,7.00
2023-03-19T18:54:32.426Z,7.90
2023-03-19T18:59:40.434Z,7.40
2023-03-19T19:04:48.129Z,7.80
2023-03-19T19:09:55.620Z,9.20
2023-03-19T19:15:08.879Z,9.30
2023-03-19T19:20:20.775Z,8.80
2023-03-19T19:25:30.337Z,11.20
2023-03-19T19:30:38.586Z,11.70
2023-03-19T19:35:46.768Z,9.70
2023-03-19T19:40:56.202Z,11.40
2023-03-19T19:46:04.019Z,11.90
2023-03-19T19:51:18.649Z,12.70
2023-03-19T19:56:29.441Z,15.30
2023-03-19T20:01:37.277Z,14.40
2023-03-19T20:06:44.782Z,17.30
2023-03-19T20:11:53.240Z,19.30
2023-03-19T20:17:01.454Z,22.60
2023-03-19T20:22:09.500Z,25.40
2023-03-19T20:27:21.922Z,22.70
2023-03-19T20:32:34.153Z,31.40
2023-03-19T20:37:41.818Z,28.50
2023-03-19T20:42:51.886Z,30.40
2023-03-19T20:47:59.386Z,32.40
2023-03-19T20:53:06.944Z,27.70
2023-03-19T20:58:21.039Z,31.90
2023-03-19T21:03:30.600Z,30.00
2023-03-19T21:08:40.939Z,30.70
2023-03-19T21:16:52.460Z,31.20
2023-03-19T21:22:00.343Z,33.50
2023-03-19T21:27:10.464Z,30.70
2023-03-19T21:32:20.221Z,31.50
2023-03-19T21:37:28.047Z,32.40
2023-03-19T21:42:38.364Z,26.60
2023-03-19T21:47:46.688Z,26.30
2023-03-19T21:53:00.688Z,22.50
2023-03-19T21:58:13.685Z,23.50
2023-03-19T22:03:22.769Z,27.80
2023-03-19T22:08:30.877Z,25.20
2023-03-19T22:13:39.079Z,24.10
2023-03-19T22:18:46.777Z,26.10
2023-03-19T22:23:55.106Z,23.50
2023-03-19T22:29:05.200Z,20.50
2023-03-19T22:34:17.001Z,20.30
2023-03-19T22:44:31.421Z,25.20
2023-03-19T22:49:38.914Z,22.50
2023-03-19T22:54:47.114Z,20.00
2023-03-19T22:59:54.306Z,20.90
2023-03-19T23:10:17.972Z,20.50
2023-03-19T23:15:28.717Z,21.20
2023-03-19T23:20:36.108Z,20.00
2023-03-19T23:25:44.593Z,21.50
2023-03-19T23:30:53.969Z,20.50
2023-03-19T23:36:02.825Z,19.50
2023-03-19T23:46:06.684Z,20.40
2023-03-19T23:51:17.176Z,23.50
2023-03-19T23:56:28.292Z,22.70
